Salida, CO (81201)

4:49 AM MST on December 27, 2014 (GMT -0700)
Elk Trail | Change Station
CLOSE
Current Station
Personal Weather Station
Location: Salida, CO
Elevation: 8130 ft
Nearby Weather Stations

Elev 8130 ft 38.55 °N, 106.12 °W | Updated 2 minutes ago

Scattered Clouds
Scattered Clouds
-0.4 °F
Feels Like 0 °F
N
0.0
Wind Variable Wind from NE
Gusts 1.0 mph

Today
High -- | Low -- °F
--% Chance of Precip.
Yesterday
High -- | Low -- °F
Precip. -- in
7:20 AM 4:50 PM
Waxing Crescent, 36% visible
Pressure 30.14 in
Visibility 10.0 miles
Clouds Scattered Clouds 1300 ft
Windchill 0 °F
Dew Point -4 °F
Humidity 85%
Rainfall 0.00 in
Snow Depth Not available.
UV 0 out of 12
Pollen .10 out of 12
Air Quality Not available.
Flu Activity Not available.
METAR KANK 271135Z AUTO 26005KT 10SM SCT013 M16/M18 A3014 RMK AO1 T11571182

More Conditions Fewer Conditions

Pressure 30.14 in
Visibility 10.0 miles
Clouds Scattered Clouds 1300 ft
Windchill 0 °F
Dew Point -4 °F
Humidity 85%
Rainfall 0.00 in
Snow Depth Not available.
UV 0 out of 12
Pollen .10 out of 12
Air Quality Not available.
Flu Activity Not available.
METAR KANK 271135Z AUTO 26005KT 10SM SCT013 M16/M18 A3014 RMK AO1 T11571182

More Conditions Fewer Conditions

10-Day Weather Forecast

Almanac

Astronomy

Dec. 27, 2014 Rise Set
Actual Time
Civil Twilight
Nautical Twilight
Astronomical Twilight
Moon
Length of Visible Light
Length of Day
Tomorrow will be .
, % of the Moon is Illuminated

Today's Extremes

State Highs State Lows

Community

WunderPhotos

Upload Photos

1,780,885 photos uploaded!

WunderBlogs® & News

Nearby

Air Quality

  Air Quality AQ Index Pollutant
Not available.

Snow Depth

Station Depth Elevation

Earthquake Activity

City Distance Mag. Time & Date
Minimum magnitude displayed is 2.5.

Coastal Water Temperatures

Place Temperature

Nearby Weather Stations